Time;durP1;ratioP1;P1;durP2;ratioP2;P2;SDS_P1;SDS_P2;PMS_P1;PMS_P2;Temp;Humidity;BMP_temperature;BMP_pressure;BME280_temperature;BME280_humidity;BME280_pressure;Samples;Min_cycle;Max_cycle;Signal;HPM_P1;HPM_P2
2024/02/04 00:05:13;;;;;;;48.58;19.00;;;;;;;;;;5017796;28;20073;-89
2024/02/04 00:07:39;;;;;;;52.47;20.23;;;;;;;;;;5017663;28;20034;-90
2024/02/04 00:10:05;;;;;;;33.97;16.85;;;;;;;;;;5016654;28;20038;-90
2024/02/04 00:12:31;;;;;;;30.48;14.77;;;;;;;;;;5016491;28;20026;-92
2024/02/04 00:14:57;;;;;;;23.65;13.95;;;;;;;;;;5016475;28;20034;-90
2024/02/04 00:17:29;;;;;;;22.40;11.68;;;;;;;;;;5016329;28;20041;-90
2024/02/04 00:19:55;;;;;;;15.75;9.23;;;;;;;;;;5017596;28;20026;-90
2024/02/04 00:22:21;;;;;;;16.35;9.65;;;;;;;;;;5016504;28;20125;-90
2024/02/04 00:24:47;;;;;;;16.30;9.70;;;;;;;;;;5016460;28;20053;-90
2024/02/04 00:27:13;;;;;;;14.85;9.55;;;;;;;;;;5017666;28;20101;-89
2024/02/04 00:29:39;;;;;;;14.55;9.40;;;;;;;;;;5016330;28;20104;-90
2024/02/04 00:32:05;;;;;;;15.05;9.25;;;;;;;;;;5016225;28;20375;-90
2024/02/04 00:34:31;;;;;;;14.10;8.93;;;;;;;;;;5016248;28;20171;-91
2024/02/04 00:36:57;;;;;;;12.57;8.30;;;;;;;;;;5016055;28;20054;-90
2024/02/04 00:39:24;;;;;;;13.57;9.02;;;;;;;;;;5016877;28;20037;-90
2024/02/04 00:41:50;;;;;;;14.02;8.23;;;;;;;;;;5015831;28;20049;-89
2024/02/04 00:47:19;;;;;;;11.63;7.10;;;;;;;;;;5020527;28;20148;-90
2024/02/04 00:49:45;;;;;;;11.77;6.82;;;;;;;;;;5019675;28;20033;-90
2024/02/04 00:52:11;;;;;;;11.23;7.55;;;;;;;;;;5020704;28;20198;-90
2024/02/04 00:54:37;;;;;;;11.80;8.10;;;;;;;;;;5020779;28;20076;-90
2024/02/04 00:57:04;;;;;;;13.20;7.78;;;;;;;;;;5019627;28;20462;-89
2024/02/04 00:59:30;;;;;;;13.48;8.73;;;;;;;;;;5019385;28;20121;-91
2024/02/04 01:01:56;;;;;;;16.70;9.98;;;;;;;;;;5023685;28;20049;-89
2024/02/04 01:04:23;;;;;;;13.73;8.93;;;;;;;;;;5040543;28;20025;-90
2024/02/04 01:06:49;;;;;;;13.80;8.93;;;;;;;;;;5039880;28;20407;-89
2024/02/04 01:09:15;;;;;;;13.05;8.80;;;;;;;;;;5020722;28;20018;-90
2024/02/04 01:11:41;;;;;;;13.90;8.45;;;;;;;;;;5019175;28;20061;-90
2024/02/04 01:17:10;;;;;;;12.70;8.05;;;;;;;;;;5020425;28;20029;-90
2024/02/04 01:19:36;;;;;;;14.90;8.77;;;;;;;;;;5019163;28;20036;-91
2024/02/04 01:22:03;;;;;;;15.32;8.88;;;;;;;;;;5020141;28;20412;-92
2024/02/04 01:24:29;;;;;;;20.35;9.15;;;;;;;;;;5018712;28;20026;-90
2024/02/04 01:26:55;;;;;;;22.42;9.32;;;;;;;;;;5019096;28;20026;-90
2024/02/04 01:32:24;;;;;;;21.92;10.50;;;;;;;;;;5027207;28;20057;-90
2024/02/04 01:34:50;;;;;;;37.97;17.98;;;;;;;;;;5022166;28;20308;-91
2024/02/04 01:37:16;;;;;;;60.83;24.55;;;;;;;;;;5034168;28;20123;-92
2024/02/04 01:39:42;;;;;;;62.65;21.95;;;;;;;;;;5059588;28;20079;-91
2024/02/04 01:42:08;;;;;;;37.58;17.42;;;;;;;;;;5059353;28;20402;-90
2024/02/04 01:47:56;;;;;;;18.20;10.55;;;;;;;;;;5059610;28;20024;-92
2024/02/04 01:50:23;;;;;;;17.70;10.13;;;;;;;;;;5059570;28;20025;-91
2024/02/04 01:52:50;;;;;;;17.35;10.35;;;;;;;;;;5041670;28;20127;-91
2024/02/04 01:55:16;;;;;;;15.80;10.95;;;;;;;;;;5059146;28;20025;-90
2024/02/04 01:57:42;;;;;;;17.17;10.38;;;;;;;;;;5041501;28;20096;-90
2024/02/04 02:00:09;;;;;;;20.50;12.00;;;;;;;;;;5059059;28;20108;-89
2024/02/04 02:02:39;;;;;;;18.38;10.98;;;;;;;;;;5059203;28;20037;-91
2024/02/04 02:05:05;;;;;;;18.02;10.65;;;;;;;;;;5041306;28;20105;-90
2024/02/04 02:07:31;;;;;;;14.13;10.32;;;;;;;;;;5059087;28;20021;-90
2024/02/04 02:09:57;;;;;;;16.25;10.93;;;;;;;;;;5058744;28;20028;-90
2024/02/04 02:12:25;;;;;;;20.75;13.30;;;;;;;;;;5041546;28;20029;-91
2024/02/04 02:21:04;;;;;;;19.23;11.93;;;;;;;;;;5058961;28;20071;-91
2024/02/04 02:23:31;;;;;;;17.55;11.40;;;;;;;;;;5041013;28;20032;-91
2024/02/04 02:25:58;;;;;;;17.02;11.18;;;;;;;;;;5058524;28;20032;-91
2024/02/04 02:28:24;;;;;;;18.17;11.23;;;;;;;;;;5038834;28;20021;-91
2024/02/04 02:30:50;;;;;;;18.38;11.38;;;;;;;;;;5020978;28;20080;-90
2024/02/04 02:33:16;;;;;;;17.35;10.75;;;;;;;;;;5020876;28;20428;-90
2024/02/04 02:35:44;;;;;;;17.95;11.50;;;;;;;;;;5038732;28;20100;-91
2024/02/04 02:38:45;;;;;;;17.48;12.00;;;;;;;;;;5020873;28;20316;-90
2024/02/04 02:41:13;;;;;;;20.45;12.48;;;;;;;;;;4939391;29;20086;-89
2024/02/04 02:43:41;;;;;;;20.52;12.75;;;;;;;;;;4939457;29;20032;-90
2024/02/04 02:46:07;;;;;;;20.75;13.35;;;;;;;;;;4941186;29;20051;-89
2024/02/04 02:48:33;;;;;;;18.92;13.05;;;;;;;;;;4958484;29;20035;-89
2024/02/04 02:50:59;;;;;;;22.63;14.15;;;;;;;;;;4958583;29;20030;-89
2024/02/04 02:53:26;;;;;;;21.30;14.00;;;;;;;;;;4958289;29;20042;-89
2024/02/04 02:55:52;;;;;;;23.92;13.93;;;;;;;;;;4958450;29;20035;-90
2024/02/04 02:58:18;;;;;;;21.83;13.32;;;;;;;;;;4958303;29;20298;-89
2024/02/04 03:00:45;;;;;;;19.65;13.15;;;;;;;;;;4958314;29;20030;-89
2024/02/04 03:03:11;;;;;;;22.13;14.40;;;;;;;;;;4957799;29;20058;-90
2024/02/04 03:05:37;;;;;;;21.27;14.13;;;;;;;;;;4957866;29;20130;-89
2024/02/04 03:08:04;;;;;;;22.95;15.20;;;;;;;;;;4944852;29;20042;-90
2024/02/04 03:10:30;;;;;;;22.77;14.20;;;;;;;;;;4958119;29;20031;-89
2024/02/04 03:12:56;;;;;;;23.50;15.05;;;;;;;;;;4958352;29;20038;-89
2024/02/04 03:15:22;;;;;;;22.05;14.27;;;;;;;;;;5018462;28;20029;-89
2024/02/04 03:17:48;;;;;;;21.83;13.95;;;;;;;;;;5040146;28;20498;-89
2024/02/04 03:20:14;;;;;;;25.77;14.98;;;;;;;;;;5057690;28;20024;-88
2024/02/04 03:22:40;;;;;;;26.42;15.90;;;;;;;;;;5040044;28;20427;-89
2024/02/04 03:25:06;;;;;;;22.90;14.45;;;;;;;;;;5040145;28;20059;-87
2024/02/04 03:27:32;;;;;;;22.58;14.63;;;;;;;;;;5045131;28;20037;-89
2024/02/04 03:29:59;;;;;;;25.17;14.95;;;;;;;;;;5020210;28;20063;-89
2024/02/04 03:32:25;;;;;;;21.67;14.27;;;;;;;;;;5020173;28;20050;-89
2024/02/04 03:34:51;;;;;;;23.40;14.85;;;;;;;;;;5037533;28;20034;-90
2024/02/04 03:37:17;;;;;;;28.15;15.82;;;;;;;;;;5037457;28;20041;-90
2024/02/04 03:39:43;;;;;;;21.58;14.77;;;;;;;;;;5020354;28;20076;-90
2024/02/04 03:42:09;;;;;;;24.00;14.95;;;;;;;;;;5037492;28;20392;-91
2024/02/04 03:44:35;;;;;;;26.30;16.08;;;;;;;;;;5037741;28;20112;-90
2024/02/04 03:47:03;;;;;;;23.67;15.30;;;;;;;;;;5020005;28;20024;-90
2024/02/04 03:49:29;;;;;;;23.73;16.08;;;;;;;;;;5020064;28;20026;-90
2024/02/04 03:51:55;;;;;;;22.63;15.57;;;;;;;;;;5019957;28;20025;-89
2024/02/04 03:54:21;;;;;;;28.02;16.38;;;;;;;;;;5017161;28;20097;-88
2024/02/04 03:56:47;;;;;;;24.45;15.38;;;;;;;;;;5020052;28;20067;-89
2024/02/04 03:59:13;;;;;;;24.23;15.13;;;;;;;;;;5037587;28;20315;-89
2024/02/04 04:01:39;;;;;;;24.95;15.98;;;;;;;;;;5019758;28;20041;-88
2024/02/04 04:04:05;;;;;;;31.23;17.77;;;;;;;;;;5019773;28;20041;-89
2024/02/04 04:06:32;;;;;;;35.10;18.88;;;;;;;;;;5037767;28;20025;-90
2024/02/04 04:08:59;;;;;;;31.70;19.75;;;;;;;;;;5020134;28;20022;-89
2024/02/04 04:11:25;;;;;;;32.42;18.88;;;;;;;;;;5020001;28;20108;-90
2024/02/04 04:13:51;;;;;;;37.88;21.27;;;;;;;;;;5037444;28;20104;-90
2024/02/04 04:16:20;;;;;;;37.22;21.88;;;;;;;;;;5037365;28;20104;-90
2024/02/04 04:18:46;;;;;;;36.10;20.77;;;;;;;;;;5019811;28;20033;-89
2024/02/04 04:21:12;;;;;;;30.35;19.00;;;;;;;;;;5039943;28;20116;-90
2024/02/04 04:23:38;;;;;;;31.08;18.27;;;;;;;;;;5023563;28;20120;-89
2024/02/04 04:26:05;;;;;;;28.25;18.65;;;;;;;;;;5023344;28;20116;-89
2024/02/04 04:31:49;;;;;;;30.65;18.75;;;;;;;;;;5040479;28;20097;-90
2024/02/04 04:34:15;;;;;;;30.52;18.70;;;;;;;;;;5040607;28;20116;-90
2024/02/04 04:36:41;;;;;;;30.27;19.00;;;;;;;;;;5023237;28;20022;-89
2024/02/04 04:39:07;;;;;;;28.10;17.45;;;;;;;;;;5040951;28;20068;-89
2024/02/04 04:41:33;;;;;;;31.30;17.45;;;;;;;;;;5023169;28;20038;-89
2024/02/04 04:47:02;;;;;;;28.70;16.85;;;;;;;;;;5040684;28;20445;-90
2024/02/04 04:49:28;;;;;;;26.88;16.75;;;;;;;;;;5022982;28;20029;-89
2024/02/04 04:51:54;;;;;;;24.40;16.70;;;;;;;;;;5040340;28;20055;-89
2024/02/04 04:54:20;;;;;;;25.90;16.40;;;;;;;;;;5019567;28;20033;-89
2024/02/04 04:56:46;;;;;;;24.05;16.00;;;;;;;;;;5022914;28;20071;-90
2024/02/04 04:59:13;;;;;;;24.25;15.27;;;;;;;;;;5022750;28;20366;-90
2024/02/04 05:01:45;;;;;;;24.33;15.95;;;;;;;;;;5022227;28;20087;-88
2024/02/04 05:04:11;;;;;;;;;;;;;;;;;;5023047;28;20034;-89
2024/02/04 05:06:37;;;;;;;24.42;15.65;;;;;;;;;;5040108;28;20196;-88
2024/02/04 05:09:03;;;;;;;32.30;18.05;;;;;;;;;;5040025;28;20112;-89
2024/02/04 05:11:29;;;;;;;33.08;19.00;;;;;;;;;;5039958;28;20021;-89
2024/02/04 05:13:55;;;;;;;37.40;21.50;;;;;;;;;;5040216;28;20040;-88
2024/02/04 05:16:21;;;;;;;36.13;21.38;;;;;;;;;;5040094;28;20037;-88
2024/02/04 05:18:47;;;;;;;31.85;18.10;;;;;;;;;;5039804;28;20025;-89
2024/02/04 05:21:13;;;;;;;27.92;17.80;;;;;;;;;;5039607;28;20075;-89
2024/02/04 05:23:39;;;;;;;27.88;16.67;;;;;;;;;;5022702;28;20068;-89
2024/02/04 05:26:05;;;;;;;31.48;18.65;;;;;;;;;;5040139;28;20028;-88
2024/02/04 05:28:31;;;;;;;42.15;20.73;;;;;;;;;;5022269;28;20021;-88
2024/02/04 05:34:15;;;;;;;28.27;15.63;;;;;;;;;;5028510;28;20053;-90
2024/02/04 05:36:41;;;;;;;25.23;14.85;;;;;;;;;;5039845;28;20033;-89
2024/02/04 05:39:16;;;;;;;23.33;14.45;;;;;;;;;;5022316;28;20044;-90
2024/02/04 05:41:42;;;;;;;31.50;17.10;;;;;;;;;;5022000;28;20219;-88
2024/02/04 05:44:09;;;;;;;26.23;15.40;;;;;;;;;;5022102;28;20025;-89
2024/02/04 05:46:38;;;;;;;25.85;15.82;;;;;;;;;;5021661;28;20390;-88
2024/02/04 05:49:05;;;;;;;21.88;13.98;;;;;;;;;;5021825;28;20301;-89
2024/02/04 05:51:38;;;;;;;21.02;13.90;;;;;;;;;;5039522;28;20025;-88
2024/02/04 05:54:04;;;;;;;30.42;16.38;;;;;;;;;;5039426;28;20104;-88
2024/02/04 05:56:30;;;;;;;32.90;19.48;;;;;;;;;;5039442;28;20063;-90
2024/02/04 05:58:56;;;;;;;56.13;28.95;;;;;;;;;;5021717;28;20060;-89
2024/02/04 06:01:22;;;;;;;63.67;31.80;;;;;;;;;;5021258;28;20327;-90
2024/02/04 06:03:48;;;;;;;43.17;23.92;;;;;;;;;;5021446;28;20041;-88
2024/02/04 06:06:19;;;;;;;52.50;30.05;;;;;;;;;;5021313;28;20021;-89
2024/02/04 06:08:45;;;;;;;43.58;25.73;;;;;;;;;;5039129;28;20028;-88
2024/02/04 06:11:12;;;;;;;28.70;18.40;;;;;;;;;;5039126;28;20045;-87
2024/02/04 06:13:44;;;;;;;37.40;20.80;;;;;;;;;;5021235;28;20026;-89
2024/02/04 06:22:35;;;;;;;29.85;18.65;;;;;;;;;;5038594;28;20100;-90
2024/02/04 06:25:02;;;;;;;32.78;20.30;;;;;;;;;;5038629;28;20361;-89
2024/02/04 06:27:28;;;;;;;31.58;19.02;;;;;;;;;;5021266;28;20024;-90
2024/02/04 06:32:58;;;;;;;43.10;19.10;;;;;;;;;;5038865;28;20041;-89
2024/02/04 06:35:24;;;;;;;37.00;18.30;;;;;;;;;;5038266;28;20033;-91
2024/02/04 06:37:50;;;;;;;59.00;24.10;;;;;;;;;;5021280;28;20328;-90
2024/02/04 06:40:16;;;;;;;39.80;19.45;;;;;;;;;;5038663;28;20021;-90
2024/02/04 06:42:42;;;;;;;30.75;18.17;;;;;;;;;;5037256;28;20021;-90
2024/02/04 06:48:13;;;;;;;41.05;22.52;;;;;;;;;;5038478;28;20036;-90
2024/02/04 06:50:39;;;;;;;36.90;22.25;;;;;;;;;;5038289;28;20026;-90
2024/02/04 06:53:05;;;;;;;29.23;18.95;;;;;;;;;;5020321;28;20035;-90
2024/02/04 06:55:31;;;;;;;34.83;19.27;;;;;;;;;;5020907;28;20119;-90
2024/02/04 06:57:57;;;;;;;33.78;18.95;;;;;;;;;;5020849;28;20063;-89
2024/02/04 07:03:27;;;;;;;52.83;27.73;;;;;;;;;;5038273;28;20100;-90
2024/02/04 07:05:53;;;;;;;53.25;28.30;;;;;;;;;;5037653;28;20037;-89
2024/02/04 07:08:19;;;;;;;55.08;29.65;;;;;;;;;;5020399;28;20025;-90
2024/02/04 07:10:45;;;;;;;62.33;29.58;;;;;;;;;;5038147;28;20021;-89
2024/02/04 07:13:12;;;;;;;58.05;29.42;;;;;;;;;;5037713;28;20112;-90
2024/02/04 07:19:07;;;;;;;68.38;34.42;;;;;;;;;;5038086;28;20433;-89
2024/02/04 07:21:33;;;;;;;47.25;26.83;;;;;;;;;;5037533;28;20040;-88
2024/02/04 07:23:59;;;;;;;42.17;25.60;;;;;;;;;;5020140;28;20025;-88
2024/02/04 07:26:25;;;;;;;47.38;27.75;;;;;;;;;;5020220;28;20419;-88
2024/02/04 07:28:51;;;;;;;49.58;28.67;;;;;;;;;;5037658;28;20021;-89
2024/02/04 07:31:17;;;;;;;43.05;26.17;;;;;;;;;;5020298;28;20037;-88
2024/02/04 07:33:43;;;;;;;35.58;22.75;;;;;;;;;;5016855;28;20085;-88
2024/02/04 07:36:09;;;;;;;29.77;19.45;;;;;;;;;;5007908;28;20033;-88
2024/02/04 07:38:35;;;;;;;31.95;21.20;;;;;;;;;;4998179;28;20421;-89
2024/02/04 07:41:01;;;;;;;41.45;25.88;;;;;;;;;;4998347;28;20066;-88
2024/02/04 07:43:27;;;;;;;74.50;36.92;;;;;;;;;;4998397;28;20041;-87
2024/02/04 07:48:57;;;;;;;70.03;32.75;;;;;;;;;;5018086;28;20033;-88
2024/02/04 07:51:23;;;;;;;98.22;38.30;;;;;;;;;;5017243;28;20400;-87
2024/02/04 07:53:50;;;;;;;105.22;40.15;;;;;;;;;;5018748;28;20053;-87
2024/02/04 07:56:16;;;;;;;83.22;32.47;;;;;;;;;;5020869;28;20028;-86
2024/02/04 07:58:42;;;;;;;87.70;32.92;;;;;;;;;;5021751;28;20033;-87
2024/02/04 08:04:12;;;;;;;52.10;22.92;;;;;;;;;;5021797;28;20351;-88
2024/02/04 08:06:38;;;;;;;41.33;19.50;;;;;;;;;;5008767;28;20317;-88
2024/02/04 08:09:04;;;;;;;44.38;21.60;;;;;;;;;;5000884;28;20054;-87
2024/02/04 08:11:30;;;;;;;57.35;24.05;;;;;;;;;;5000559;28;20030;-87
2024/02/04 08:13:56;;;;;;;60.40;26.60;;;;;;;;;;5001673;28;20118;-87
2024/02/04 08:19:26;;;;;;;36.00;19.08;;;;;;;;;;4982973;28;20053;-87
2024/02/04 08:46:28;;;;;;;35.78;20.00;;;;;;;;;;1733446;23;20463;-94
2024/02/04 08:48:54;;;;;;;31.45;18.80;;;;;;;;;;4903521;29;20053;-82
2024/02/04 08:51:20;;;;;;;36.95;21.05;;;;;;;;;;4903739;29;20024;-84
2024/02/04 08:53:46;;;;;;;42.83;22.65;;;;;;;;;;4904913;29;20408;-82
2024/02/04 08:56:12;;;;;;;43.75;24.08;;;;;;;;;;4896683;29;20077;-84
2024/02/04 08:58:38;;;;;;;39.13;22.90;;;;;;;;;;4900980;29;20031;-83
2024/02/04 09:01:05;;;;;;;36.90;21.35;;;;;;;;;;4897299;29;20416;-84
2024/02/04 09:03:31;;;;;;;28.38;16.63;;;;;;;;;;4889426;29;20133;-84
2024/02/04 09:05:57;;;;;;;27.00;16.35;;;;;;;;;;4901864;29;20039;-84
2024/02/04 09:08:23;;;;;;;28.17;16.98;;;;;;;;;;4904672;29;20328;-84
2024/02/04 09:10:49;;;;;;;30.98;17.25;;;;;;;;;;4904411;29;20032;-84
2024/02/04 09:13:15;;;;;;;22.58;14.40;;;;;;;;;;4903582;29;20407;-84
2024/02/04 09:15:42;;;;;;;22.33;13.20;;;;;;;;;;4903325;29;20037;-84
2024/02/04 09:18:08;;;;;;;17.15;10.73;;;;;;;;;;4904543;29;20032;-84
2024/02/04 09:20:34;;;;;;;12.27;7.13;;;;;;;;;;4904634;29;20037;-84
2024/02/04 09:23:00;;;;;;;12.43;5.72;;;;;;;;;;4904406;29;20035;-84
2024/02/04 09:25:26;;;;;;;11.02;6.32;;;;;;;;;;4904439;29;20307;-84
2024/02/04 09:27:52;;;;;;;7.03;4.38;;;;;;;;;;4898019;29;20037;-84
2024/02/04 09:30:18;;;;;;;6.40;4.30;;;;;;;;;;4885850;29;20025;-84
2024/02/04 09:32:44;;;;;;;8.23;3.53;;;;;;;;;;4884731;29;20037;-84
2024/02/04 09:35:10;;;;;;;5.10;3.20;;;;;;;;;;4884386;29;20124;-84
2024/02/04 09:37:36;;;;;;;8.25;3.20;;;;;;;;;;4884505;29;20467;-84
2024/02/04 09:40:04;;;;;;;3.75;1.88;;;;;;;;;;4885657;29;20029;-84
2024/02/04 09:42:31;;;;;;;4.40;2.38;;;;;;;;;;4874034;29;20370;-86
2024/02/04 09:48:01;;;;;;;3.13;2.20;;;;;;;;;;4876686;29;20121;-86
2024/02/04 09:50:27;;;;;;;3.05;1.70;;;;;;;;;;4890111;29;20040;-85
2024/02/04 09:52:56;;;;;;;2.67;2.15;;;;;;;;;;4885024;29;20041;-86
2024/02/04 09:55:22;;;;;;;3.70;1.85;;;;;;;;;;4874562;29;20037;-86
2024/02/04 09:57:48;;;;;;;2.72;1.80;;;;;;;;;;4878821;29;20033;-87
2024/02/04 10:00:14;;;;;;;4.82;2.60;;;;;;;;;;4901441;29;20055;-86
2024/02/04 10:02:42;;;;;;;4.82;2.15;;;;;;;;;;4885901;29;20032;-86
2024/02/04 10:05:10;;;;;;;4.65;2.75;;;;;;;;;;4903866;29;20407;-86
2024/02/04 10:07:36;;;;;;;3.30;2.75;;;;;;;;;;4887300;29;20033;-86
2024/02/04 10:10:02;;;;;;;7.53;4.18;;;;;;;;;;4886995;29;20364;-86
2024/02/04 10:12:28;;;;;;;9.65;4.60;;;;;;;;;;4903714;29;20020;-86
2024/02/04 10:14:54;;;;;;;6.55;3.92;;;;;;;;;;4903580;29;20040;-85
2024/02/04 10:17:20;;;;;;;3.42;2.20;;;;;;;;;;4903474;29;20043;-85
2024/02/04 10:19:49;;;;;;;4.85;2.40;;;;;;;;;;4886995;29;20032;-86
2024/02/04 10:22:17;;;;;;;3.08;2.35;;;;;;;;;;4903552;29;20360;-86
2024/02/04 10:24:43;;;;;;;4.55;2.58;;;;;;;;;;4903568;29;20383;-86
2024/02/04 10:27:11;;;;;;;7.75;3.42;;;;;;;;;;4886692;29;20364;-86
2024/02/04 10:29:37;;;;;;;4.85;2.20;;;;;;;;;;4886889;29;20024;-85
2024/02/04 10:32:03;;;;;;;6.43;3.80;;;;;;;;;;4886499;29;20450;-85
2024/02/04 10:34:29;;;;;;;6.68;3.55;;;;;;;;;;4903137;29;20115;-85
2024/02/04 10:36:56;;;;;;;8.43;2.58;;;;;;;;;;4903348;29;20028;-86
2024/02/04 10:39:22;;;;;;;3.53;2.45;;;;;;;;;;4886771;29;20033;-86
2024/02/04 10:41:52;;;;;;;2.28;1.52;;;;;;;;;;4902671;29;20093;-85
2024/02/04 10:44:21;;;;;;;7.13;3.15;;;;;;;;;;4886562;29;20037;-86
2024/02/04 10:46:50;;;;;;;4.53;3.10;;;;;;;;;;4903096;29;20407;-85
2024/02/04 10:49:18;;;;;;;3.60;2.63;;;;;;;;;;4902815;29;20184;-85
2024/02/04 10:51:45;;;;;;;3.50;1.88;;;;;;;;;;4902894;29;20177;-85
2024/02/04 10:54:12;;;;;;;7.05;3.28;;;;;;;;;;4886294;29;20040;-85
2024/02/04 10:56:43;;;;;;;7.82;4.50;;;;;;;;;;4902978;29;20033;-85
2024/02/04 10:59:11;;;;;;;12.38;6.53;;;;;;;;;;4902899;29;20088;-85
2024/02/04 11:01:39;;;;;;;6.22;3.30;;;;;;;;;;4885810;29;20127;-85
2024/02/04 11:04:05;;;;;;;6.95;4.97;;;;;;;;;;4903013;29;20033;-85
2024/02/04 11:06:32;;;;;;;3.05;1.75;;;;;;;;;;4886150;29;20075;-85
2024/02/04 11:09:00;;;;;;;4.55;3.15;;;;;;;;;;4886227;29;20032;-85
2024/02/04 11:11:27;;;;;;;4.78;2.90;;;;;;;;;;4902819;29;20096;-85
2024/02/04 11:13:55;;;;;;;2.63;1.80;;;;;;;;;;4885774;29;20066;-85
2024/02/04 11:16:28;;;;;;;3.00;2.03;;;;;;;;;;4885996;29;20029;-85
2024/02/04 11:19:21;;;;;;;3.78;1.90;;;;;;;;;;4902673;29;20043;-84
2024/02/04 11:21:47;;;;;;;2.75;2.00;;;;;;;;;;4885944;29;20033;-85
2024/02/04 11:24:15;;;;;;;4.55;1.92;;;;;;;;;;4902561;29;20025;-85
2024/02/04 11:26:41;;;;;;;2.20;1.30;;;;;;;;;;4885989;29;20033;-85
2024/02/04 11:29:07;;;;;;;2.53;1.60;;;;;;;;;;4902223;29;20048;-84
2024/02/04 11:31:33;;;;;;;3.00;1.40;;;;;;;;;;4902625;29;20032;-85
2024/02/04 11:34:01;;;;;;;1.85;1.25;;;;;;;;;;4902485;29;20029;-85
2024/02/04 11:36:27;;;;;;;2.58;1.60;;;;;;;;;;4885522;29;20494;-85
2024/02/04 11:38:54;;;;;;;1.85;1.30;;;;;;;;;;4885625;29;20076;-85
2024/02/04 11:41:27;;;;;;;1.42;1.20;;;;;;;;;;4902221;29;20160;-85
2024/02/04 11:43:56;;;;;;;2.08;1.30;;;;;;;;;;4902231;29;20412;-85
2024/02/04 11:46:23;;;;;;;2.78;1.42;;;;;;;;;;4885687;29;20032;-85
2024/02/04 11:48:56;;;;;;;3.08;1.75;;;;;;;;;;4884819;29;20116;-85
2024/02/04 11:51:25;;;;;;;2.70;1.33;;;;;;;;;;4902346;29;20040;-85
2024/02/04 11:53:51;;;;;;;4.53;2.70;;;;;;;;;;4902237;29;20403;-85
2024/02/04 11:56:19;;;;;;;3.08;1.95;;;;;;;;;;4902247;29;20024;-85
2024/02/04 11:58:45;;;;;;;2.13;1.23;;;;;;;;;;4902364;29;20041;-85
2024/02/04 12:01:11;;;;;;;6.30;3.20;;;;;;;;;;4902296;29;20073;-85
2024/02/04 12:03:37;;;;;;;3.22;2.08;;;;;;;;;;4902121;29;20025;-85
2024/02/04 12:06:05;;;;;;;5.28;2.90;;;;;;;;;;4902051;29;20021;-85
2024/02/04 12:08:32;;;;;;;1.35;1.20;;;;;;;;;;4902119;29;20048;-85
2024/02/04 12:10:59;;;;;;;11.50;4.50;;;;;;;;;;4902090;29;20400;-85
2024/02/04 12:13:25;;;;;;;7.35;4.35;;;;;;;;;;4885582;29;20056;-85
2024/02/04 12:15:51;;;;;;;7.35;5.90;;;;;;;;;;4901818;29;20035;-85
2024/02/04 12:18:19;;;;;;;2.78;2.58;;;;;;;;;;4901640;29;20047;-85
2024/02/04 12:20:48;;;;;;;2.80;1.90;;;;;;;;;;4901984;29;20095;-85
2024/02/04 12:23:14;;;;;;;2.85;2.10;;;;;;;;;;4902068;29;20036;-85
2024/02/04 12:25:40;;;;;;;4.53;2.35;;;;;;;;;;4885280;29;20037;-84
2024/02/04 12:28:06;;;;;;;3.85;2.35;;;;;;;;;;4902047;29;20044;-84
2024/02/04 12:30:33;;;;;;;4.47;2.42;;;;;;;;;;4885397;29;20040;-85
2024/02/04 12:33:00;;;;;;;2.25;1.85;;;;;;;;;;4901808;29;20040;-85
2024/02/04 12:35:29;;;;;;;4.32;2.22;;;;;;;;;;4885325;29;20037;-84
2024/02/04 12:37:57;;;;;;;1.95;1.42;;;;;;;;;;4885206;29;20037;-85
2024/02/04 12:40:23;;;;;;;4.93;1.67;;;;;;;;;;4901691;29;20040;-85
2024/02/04 12:42:56;;;;;;;2.17;1.58;;;;;;;;;;4888347;29;20348;-84
2024/02/04 12:45:23;;;;;;;2.00;1.30;;;;;;;;;;4905396;29;20032;-85
2024/02/04 12:47:50;;;;;;;2.00;1.35;;;;;;;;;;4905165;29;20048;-84
2024/02/04 12:50:18;;;;;;;2.80;1.35;;;;;;;;;;4904987;29;20029;-84
2024/02/04 12:52:44;;;;;;;8.68;3.80;;;;;;;;;;4904944;29;20431;-85
2024/02/04 12:55:19;;;;;;;1.67;1.23;;;;;;;;;;4888515;29;20051;-84
2024/02/04 12:57:45;;;;;;;4.18;1.40;;;;;;;;;;4888202;29;20084;-84
2024/02/04 13:00:12;;;;;;;17.13;6.93;;;;;;;;;;4888195;29;20368;-83
2024/02/04 13:02:39;;;;;;;2.95;1.33;;;;;;;;;;4904977;29;20029;-84
2024/02/04 13:05:05;;;;;;;13.85;5.70;;;;;;;;;;4904748;29;20031;-83
2024/02/04 13:07:31;;;;;;;7.97;2.95;;;;;;;;;;4904596;29;20021;-84
2024/02/04 13:09:59;;;;;;;5.25;2.85;;;;;;;;;;4904985;29;20068;-84
2024/02/04 13:12:25;;;;;;;3.80;2.20;;;;;;;;;;4904488;29;20111;-84
2024/02/04 13:14:51;;;;;;;3.53;1.88;;;;;;;;;;4904642;29;20036;-83
2024/02/04 13:17:17;;;;;;;1.35;1.10;;;;;;;;;;4888038;29;20123;-84
2024/02/04 13:19:44;;;;;;;3.13;1.38;;;;;;;;;;4904454;29;20063;-84
2024/02/04 13:22:10;;;;;;;1.52;1.13;;;;;;;;;;4904509;29;20036;-84
2024/02/04 13:24:36;;;;;;;2.25;1.50;;;;;;;;;;4887635;29;20065;-83
2024/02/04 13:27:03;;;;;;;2.72;1.65;;;;;;;;;;4904327;29;20028;-83
2024/02/04 13:29:29;;;;;;;1.70;1.15;;;;;;;;;;4903951;29;20024;-84
2024/02/04 13:31:55;;;;;;;2.75;1.83;;;;;;;;;;4904193;29;20108;-83
2024/02/04 13:34:21;;;;;;;1.45;1.10;;;;;;;;;;4904135;29;20041;-84
2024/02/04 13:36:47;;;;;;;1.70;1.50;;;;;;;;;;4904304;29;20024;-84
2024/02/04 13:39:17;;;;;;;2.20;1.40;;;;;;;;;;4887689;29;20060;-84
2024/02/04 13:41:43;;;;;;;1.35;1.10;;;;;;;;;;4887692;29;20371;-84
2024/02/04 13:44:10;;;;;;;2.53;1.45;;;;;;;;;;4887137;29;20051;-84
2024/02/04 13:46:39;;;;;;;3.55;1.80;;;;;;;;;;4903753;29;20028;-83
2024/02/04 13:49:05;;;;;;;6.70;4.25;;;;;;;;;;4903861;29;20096;-84
2024/02/04 13:51:31;;;;;;;2.92;2.10;;;;;;;;;;4887008;29;20035;-84
2024/02/04 13:53:57;;;;;;;4.82;3.20;;;;;;;;;;4903900;29;20036;-83
2024/02/04 13:56:24;;;;;;;3.28;1.92;;;;;;;;;;4903593;29;20120;-84
2024/02/04 13:58:50;;;;;;;3.05;2.10;;;;;;;;;;4903858;29;20028;-84
2024/02/04 14:01:18;;;;;;;2.80;1.67;;;;;;;;;;4903819;29;20024;-84
2024/02/04 14:03:44;;;;;;;4.72;1.90;;;;;;;;;;4903803;29;20051;-83
2024/02/04 14:06:12;;;;;;;4.88;1.15;;;;;;;;;;4903702;29;20041;-84
2024/02/04 14:08:38;;;;;;;2.17;1.70;;;;;;;;;;4903573;29;20049;-83
2024/02/04 14:11:04;;;;;;;2.35;1.40;;;;;;;;;;4887150;29;20041;-83
2024/02/04 14:13:32;;;;;;;2.53;1.45;;;;;;;;;;4903564;29;20039;-84
2024/02/04 14:15:58;;;;;;;3.72;1.50;;;;;;;;;;4903474;29;20104;-84
2024/02/04 14:18:25;;;;;;;1.67;1.20;;;;;;;;;;4903415;29;20033;-84
2024/02/04 14:20:51;;;;;;;4.45;1.65;;;;;;;;;;4903455;29;20048;-82
2024/02/04 14:23:17;;;;;;;3.15;1.33;;;;;;;;;;4886684;29;20518;-84
2024/02/04 14:25:43;;;;;;;2.83;1.50;;;;;;;;;;4886776;29;20110;-84
2024/02/04 14:28:09;;;;;;;3.17;1.20;;;;;;;;;;4886461;29;20447;-84
2024/02/04 14:30:35;;;;;;;3.58;2.00;;;;;;;;;;4903032;29;20036;-84
2024/02/04 14:33:03;;;;;;;3.10;2.00;;;;;;;;;;4892120;29;20040;-85
2024/02/04 14:35:29;;;;;;;5.45;2.10;;;;;;;;;;4902265;29;20037;-84
2024/02/04 14:37:55;;;;;;;4.55;2.60;;;;;;;;;;4903114;29;20035;-85
2024/02/04 14:40:21;;;;;;;4.40;2.60;;;;;;;;;;4903276;29;20028;-85
2024/02/04 14:42:47;;;;;;;3.47;2.40;;;;;;;;;;4902020;29;20308;-84
2024/02/04 14:45:13;;;;;;;3.42;2.60;;;;;;;;;;4903183;29;20021;-83
2024/02/04 14:47:39;;;;;;;5.45;3.30;;;;;;;;;;4892613;29;20335;-83
2024/02/04 14:50:06;;;;;;;8.45;4.43;;;;;;;;;;4902327;29;20032;-83
2024/02/04 14:52:32;;;;;;;9.45;5.53;;;;;;;;;;4902836;29;20402;-84
2024/02/04 14:54:58;;;;;;;20.13;9.88;;;;;;;;;;4886097;29;20036;-83
2024/02/04 14:57:24;;;;;;;30.33;10.93;;;;;;;;;;4902722;29;20067;-84
2024/02/04 14:59:50;;;;;;;18.48;6.72;;;;;;;;;;4885974;29;20041;-86
2024/02/04 15:02:16;;;;;;;18.08;6.38;;;;;;;;;;4886104;29;20029;-86
2024/02/04 15:04:42;;;;;;;15.65;5.68;;;;;;;;;;4885606;29;20119;-87
2024/02/04 15:07:08;;;;;;;26.42;10.35;;;;;;;;;;4902572;29;20045;-86
2024/02/04 15:09:35;;;;;;;31.73;11.48;;;;;;;;;;4885943;29;20040;-86
2024/02/04 15:12:01;;;;;;;53.42;21.27;;;;;;;;;;4902590;29;20412;-86
2024/02/04 15:14:28;;;;;;;32.35;13.63;;;;;;;;;;4902298;29;20446;-85
2024/02/04 15:16:55;;;;;;;43.50;17.40;;;;;;;;;;4885738;29;20052;-86
2024/02/04 15:19:22;;;;;;;33.58;13.48;;;;;;;;;;4885904;29;20037;-86
2024/02/04 15:21:48;;;;;;;44.35;15.88;;;;;;;;;;4902346;29;20040;-86
2024/02/04 15:24:14;;;;;;;31.77;14.07;;;;;;;;;;4893446;29;20024;-90
2024/02/04 15:26:43;;;;;;;37.90;15.10;;;;;;;;;;4896460;29;20035;-86
2024/02/04 15:29:11;;;;;;;37.75;15.57;;;;;;;;;;4902199;29;20356;-87
2024/02/04 15:31:38;;;;;;;36.10;15.98;;;;;;;;;;4889004;29;20036;-85
2024/02/04 15:34:06;;;;;;;44.80;17.98;;;;;;;;;;4892154;29;20056;-86
2024/02/04 15:36:33;;;;;;;40.38;16.67;;;;;;;;;;4885531;29;20032;-86
2024/02/04 15:38:59;;;;;;;40.70;19.05;;;;;;;;;;4893366;29;20368;-86
2024/02/04 15:41:25;;;;;;;44.33;18.75;;;;;;;;;;4902236;29;20364;-88
2024/02/04 15:43:51;;;;;;;35.20;17.70;;;;;;;;;;4902514;29;20081;-88
2024/02/04 15:46:18;;;;;;;30.67;17.33;;;;;;;;;;4885636;29;20060;-88
2024/02/04 15:48:44;;;;;;;30.50;17.58;;;;;;;;;;4902088;29;20055;-87
2024/02/04 15:51:11;;;;;;;32.80;18.73;;;;;;;;;;4885799;29;20043;-88
2024/02/04 15:53:37;;;;;;;36.88;23.70;;;;;;;;;;4901898;29;20107;-88